New Brighton, Pennsylvania
Current Conditions -  °F | °C
As of 8:47 PM on Friday 31 Oct 2014 (Local Time) from KBVI Reporting Station
Drizzle Drizzle  
Wind Chill: 41°   Ceiling: 1900
Heat Index: 41°   Visibility: 5mi
Dew Point: 41°   Wind: 0mph
Humidity: 100%   Direction: NA
Pressure: 29.89"   Gusts: NA
Location:  40.74°N, 80.31°W
Report Text: KBVI 010047Z 00000KT 5SM DZ SCT004 SCT007 OVC019 05/05 A2989 RMK LAST
Loading
Personal Weather Stations






























Interactive Weather Map
Tropical Storm Tracking
New forecast layout! Learn more

10-Day Weather Forecast

Advertisements
Track Severe Weather on mobile